createdAt,value
2018-08-19T00:01:45.530Z,20.33
2018-08-19T00:04:15.987Z,20.26
2018-08-19T00:06:46.606Z,20.25
2018-08-19T00:09:17.550Z,20.21
2018-08-19T00:11:48.703Z,20.16
2018-08-19T00:14:33.002Z,20.06
2018-08-19T00:17:04.314Z,20.04
2018-08-19T00:19:36.042Z,20.09
2018-08-19T00:22:06.643Z,20.10
2018-08-19T00:24:37.079Z,20.15
2018-08-19T00:27:07.670Z,20.13
2018-08-19T00:29:38.168Z,20.09
2018-08-19T00:32:09.242Z,19.97
2018-08-19T00:34:39.867Z,19.97
2018-08-19T00:37:10.238Z,19.94
2018-08-19T00:39:40.699Z,19.92
2018-08-19T00:42:11.126Z,19.87
2018-08-19T00:44:42.959Z,19.84
2018-08-19T00:47:13.371Z,19.86
2018-08-19T00:49:44.392Z,19.83
2018-08-19T00:52:14.735Z,19.80
2018-08-19T00:54:45.100Z,19.70
2018-08-19T00:57:15.502Z,19.59
2018-08-19T00:59:45.947Z,19.52
2018-08-19T01:02:16.358Z,19.51
2018-08-19T01:05:10.078Z,19.54
2018-08-19T01:07:40.592Z,19.55
2018-08-19T01:10:11.822Z,19.52
2018-08-19T01:12:42.163Z,19.50
2018-08-19T01:15:15.398Z,19.48
2018-08-19T01:17:46.396Z,19.47
2018-08-19T01:20:22.216Z,19.42
2018-08-19T01:22:52.743Z,19.38
2018-08-19T01:25:23.235Z,19.37
2018-08-19T01:27:54.732Z,19.36
2018-08-19T01:30:27.462Z,19.33
2018-08-19T01:32:58.023Z,19.31
2018-08-19T01:35:33.291Z,19.27
2018-08-19T01:38:03.866Z,19.24
2018-08-19T01:40:34.226Z,19.19
2018-08-19T01:43:06.500Z,19.17
2018-08-19T01:45:37.032Z,19.05
2018-08-19T01:48:07.598Z,18.90
2018-08-19T01:50:38.310Z,18.77
2018-08-19T01:53:08.763Z,18.72
2018-08-19T01:55:39.282Z,18.68
2018-08-19T01:58:09.727Z,18.60
2018-08-19T02:00:40.114Z,18.45
2018-08-19T02:03:11.439Z,18.44
2018-08-19T02:05:41.818Z,18.53
2018-08-19T02:08:12.527Z,18.52
2018-08-19T02:10:42.827Z,18.55
2018-08-19T02:13:13.435Z,18.58
2018-08-19T02:15:43.796Z,18.58
2018-08-19T02:18:14.106Z,18.59
2018-08-19T02:20:44.654Z,18.55
2018-08-19T02:23:15.141Z,18.52
2018-08-19T02:25:46.908Z,18.48
2018-08-19T02:28:22.178Z,18.48
2018-08-19T02:31:00.406Z,18.45
2018-08-19T02:33:36.089Z,18.51
2018-08-19T02:36:07.278Z,18.59
2018-08-19T02:38:38.723Z,18.61
2018-08-19T02:41:09.246Z,18.60
2018-08-19T02:43:49.583Z,18.56
2018-08-19T02:46:20.271Z,18.54
2018-08-19T02:48:52.314Z,18.50
2018-08-19T02:51:50.532Z,18.48
2018-08-19T02:54:21.010Z,18.39
2018-08-19T02:56:51.372Z,18.33
2018-08-19T02:59:22.022Z,18.30
2018-08-19T03:01:52.427Z,18.26
2018-08-19T03:04:22.710Z,18.21
2018-08-19T03:06:53.252Z,18.15
2018-08-19T03:09:23.940Z,18.14
2018-08-19T03:12:09.393Z,18.13
2018-08-19T03:14:39.904Z,18.06
2018-08-19T03:17:10.570Z,17.99
2018-08-19T03:19:40.895Z,17.99
2018-08-19T03:22:11.880Z,17.98
2018-08-19T03:24:42.130Z,17.92
2018-08-19T03:27:12.683Z,17.85
2018-08-19T03:29:48.234Z,17.80
2018-08-19T03:32:18.795Z,17.77
2018-08-19T03:34:50.007Z,17.75
2018-08-19T03:37:20.397Z,17.65
2018-08-19T03:39:50.743Z,17.62
2018-08-19T03:42:21.217Z,17.62
2018-08-19T03:44:51.487Z,17.61
2018-08-19T03:47:22.241Z,17.61
2018-08-19T03:49:52.627Z,17.57
2018-08-19T03:52:23.278Z,17.51
2018-08-19T03:54:53.682Z,17.45
2018-08-19T03:57:24.251Z,17.41
2018-08-19T03:59:54.639Z,17.39
2018-08-19T04:02:25.260Z,17.40
2018-08-19T04:04:55.651Z,17.38
2018-08-19T04:07:25.974Z,17.40
2018-08-19T04:09:56.504Z,17.39
2018-08-19T04:12:27.057Z,17.34
2018-08-19T04:14:57.475Z,17.31
2018-08-19T04:17:27.855Z,17.35
2018-08-19T04:19:59.886Z,17.42
2018-08-19T04:22:30.284Z,17.38
2018-08-19T04:25:01.011Z,17.19
2018-08-19T04:27:31.299Z,17.00
2018-08-19T04:30:01.816Z,16.92
2018-08-19T04:32:32.786Z,16.96
2018-08-19T04:35:03.447Z,17.06
2018-08-19T04:37:33.836Z,17.18
2018-08-19T04:40:04.496Z,17.21
2018-08-19T04:42:34.994Z,17.24
2018-08-19T04:45:05.413Z,17.22
2018-08-19T04:47:35.777Z,17.27
2018-08-19T04:50:06.265Z,17.34
2018-08-19T04:52:36.670Z,17.47
2018-08-19T04:55:07.367Z,17.59
2018-08-19T04:57:37.854Z,17.68
2018-08-19T05:00:08.652Z,17.90
2018-08-19T05:02:39.498Z,18.12
2018-08-19T05:05:09.751Z,18.36
2018-08-19T05:07:40.151Z,18.65
2018-08-19T05:10:10.734Z,19.03
2018-08-19T05:12:41.432Z,19.33
2018-08-19T05:15:11.886Z,19.60
2018-08-19T05:17:42.179Z,19.80
2018-08-19T05:20:16.259Z,19.94
2018-08-19T05:22:46.518Z,20.30
2018-08-19T05:25:16.935Z,20.51
2018-08-19T05:27:54.270Z,21.35
2018-08-19T05:30:24.715Z,22.03
2018-08-19T05:33:00.027Z,22.49
2018-08-19T05:35:31.418Z,23.18
2018-08-19T05:38:02.993Z,23.58
2018-08-19T05:40:33.509Z,24.08
2018-08-19T05:43:04.053Z,24.51
2018-08-19T05:45:40.420Z,24.82
2018-08-19T05:48:13.352Z,25.09
2018-08-19T05:50:43.770Z,25.47
2018-08-19T05:53:14.273Z,25.37
2018-08-19T05:55:44.829Z,24.73
2018-08-19T05:58:15.087Z,24.31
2018-08-19T06:00:51.691Z,24.30
2018-08-19T06:03:22.507Z,24.65
2018-08-19T06:05:52.741Z,25.47
2018-08-19T06:08:23.167Z,26.06
2018-08-19T06:10:53.581Z,26.64
2018-08-19T06:13:23.944Z,26.81
2018-08-19T06:15:54.440Z,26.66
2018-08-19T06:18:24.786Z,26.86
2018-08-19T06:20:55.263Z,26.70
2018-08-19T06:23:25.658Z,27.58
2018-08-19T06:25:55.942Z,27.00
2018-08-19T06:28:26.576Z,26.70
2018-08-19T06:30:56.947Z,26.99
2018-08-19T06:33:27.252Z,27.60
2018-08-19T06:35:57.731Z,27.89
2018-08-19T06:38:28.180Z,27.34
2018-08-19T06:40:58.696Z,27.20
2018-08-19T06:43:29.261Z,27.28
2018-08-19T06:45:59.908Z,27.47
2018-08-19T06:48:30.342Z,29.18
2018-08-19T06:51:00.806Z,28.47
2018-08-19T06:53:31.180Z,29.98
2018-08-19T06:56:01.700Z,30.68
2018-08-19T06:58:32.430Z,31.05
2018-08-19T07:01:02.725Z,30.12
2018-08-19T07:03:33.592Z,29.23
2018-08-19T07:06:11.287Z,30.27
2018-08-19T07:08:41.834Z,29.72
2018-08-19T07:11:12.330Z,27.63
2018-08-19T07:13:42.807Z,29.77
2018-08-19T07:16:13.272Z,31.10
2018-08-19T07:18:43.761Z,30.70
2018-08-19T07:21:14.081Z,29.36
2018-08-19T07:23:44.714Z,30.17
2018-08-19T07:26:15.095Z,30.47
2018-08-19T07:28:45.409Z,30.89
2018-08-19T07:31:15.868Z,32.22
2018-08-19T07:33:46.380Z,32.07
2018-08-19T07:36:16.888Z,32.57
2018-08-19T07:38:47.346Z,32.11
2018-08-19T07:41:17.690Z,32.64
2018-08-19T07:43:48.172Z,31.80
2018-08-19T07:46:28.154Z,29.90
2018-08-19T07:48:58.624Z,31.40
2018-08-19T07:51:29.098Z,31.74
2018-08-19T07:53:59.446Z,32.29
2018-08-19T07:56:29.747Z,33.67
2018-08-19T07:59:05.199Z,33.86
2018-08-19T08:01:36.243Z,32.88
2018-08-19T08:04:07.094Z,33.50
2018-08-19T08:06:38.123Z,33.16
2018-08-19T08:09:11.218Z,32.88
2018-08-19T08:11:41.598Z,33.27
2018-08-19T08:14:12.068Z,33.42
2018-08-19T08:16:47.598Z,32.56
2018-08-19T08:19:18.008Z,33.42
2018-08-19T08:21:48.902Z,33.67
2018-08-19T08:24:19.661Z,34.31
2018-08-19T08:26:54.426Z,33.68
2018-08-19T08:29:25.071Z,33.91
2018-08-19T08:31:58.126Z,32.85
2018-08-19T08:34:29.675Z,31.44
2018-08-19T08:37:04.068Z,31.51
2018-08-19T08:39:36.478Z,32.21
2018-08-19T08:42:07.535Z,32.82
2018-08-19T08:44:38.050Z,34.40
2018-08-19T08:47:10.923Z,32.12
2018-08-19T08:49:47.352Z,32.97
2018-08-19T08:52:24.736Z,32.70
2018-08-19T08:55:00.743Z,32.88
2018-08-19T08:57:31.132Z,35.00
2018-08-19T09:00:01.523Z,34.44
2018-08-19T09:02:31.984Z,33.38
2018-08-19T09:05:02.663Z,34.65
2018-08-19T09:07:33.174Z,35.88
2018-08-19T09:10:03.632Z,35.82
2018-08-19T09:12:50.170Z,35.95
2018-08-19T09:15:20.888Z,34.44
2018-08-19T09:17:51.491Z,35.53
2018-08-19T09:20:22.281Z,35.46
2018-08-19T09:22:52.685Z,34.69
2018-08-19T09:25:23.238Z,35.47
2018-08-19T09:27:53.823Z,34.70
2018-08-19T09:30:38.343Z,35.74
2018-08-19T09:33:09.037Z,36.01
2018-08-19T09:35:40.687Z,35.84
2018-08-19T09:38:22.496Z,35.65
2018-08-19T09:40:53.392Z,36.44
2018-08-19T09:43:23.819Z,37.37
2018-08-19T09:45:54.414Z,37.03
2018-08-19T09:48:24.902Z,37.92
2018-08-19T09:51:01.494Z,37.26
2018-08-19T09:53:31.930Z,36.72
2018-08-19T09:56:09.394Z,37.31
2018-08-19T09:58:40.576Z,36.81
2018-08-19T10:01:14.076Z,36.67
2018-08-19T10:03:44.780Z,37.43
2018-08-19T10:06:15.284Z,38.15
2018-08-19T10:12:02.896Z,37.58
2018-08-19T10:14:33.418Z,37.83
2018-08-19T10:17:03.874Z,37.93
2018-08-19T10:19:34.423Z,37.89
2018-08-19T10:22:04.903Z,36.84
2018-08-19T10:24:35.716Z,36.39
2018-08-19T10:27:17.970Z,37.08
2018-08-19T10:29:48.329Z,37.57
2018-08-19T10:32:18.951Z,38.09
2018-08-19T10:34:49.615Z,38.13
2018-08-19T10:37:20.225Z,39.60
2018-08-19T10:39:56.415Z,40.22
2018-08-19T10:42:29.163Z,40.50
2018-08-19T10:44:59.462Z,41.00
2018-08-19T10:47:29.802Z,40.53
2018-08-19T10:50:04.934Z,37.67
2018-08-19T10:52:39.872Z,38.05
2018-08-19T10:55:12.022Z,38.11
2018-08-19T10:57:42.490Z,37.53
2018-08-19T11:00:19.846Z,37.49
2018-08-19T11:02:50.365Z,36.92
2018-08-19T11:05:20.813Z,38.44
2018-08-19T11:07:51.321Z,36.70
2018-08-19T11:10:23.402Z,35.39
2018-08-19T11:12:56.893Z,34.61
2018-08-19T11:15:50.489Z,34.22
2018-08-19T11:18:42.342Z,34.29
2018-08-19T11:21:20.363Z,34.16
2018-08-19T11:23:50.561Z,34.56
2018-08-19T11:26:21.010Z,35.10
2018-08-19T11:28:56.455Z,35.24
2018-08-19T11:31:33.709Z,34.84
2018-08-19T11:34:05.244Z,37.36
2018-08-19T11:36:40.320Z,38.00
2018-08-19T11:39:13.510Z,38.49
2018-08-19T11:41:43.726Z,37.26
2018-08-19T11:44:17.408Z,37.67
2018-08-19T11:46:47.317Z,36.35
2018-08-19T11:49:18.427Z,37.51
2018-08-19T11:51:52.970Z,37.48
2018-08-19T11:54:24.029Z,38.10
2018-08-19T11:57:01.698Z,38.00
2018-08-19T11:59:36.890Z,39.06
2018-08-19T12:02:09.895Z,40.61
2018-08-19T12:04:39.918Z,39.52
2018-08-19T12:07:10.033Z,41.83
2018-08-19T12:10:01.710Z,41.86
2018-08-19T12:12:46.048Z,41.84
2018-08-19T12:15:16.230Z,42.81
2018-08-19T12:17:46.238Z,43.72
2018-08-19T12:20:23.328Z,38.35
2018-08-19T12:22:53.304Z,36.27
2018-08-19T12:25:23.441Z,37.68
2018-08-19T12:27:54.198Z,36.99
2018-08-19T12:30:24.113Z,36.35
2018-08-19T12:33:09.698Z,35.66
2018-08-19T12:35:39.849Z,35.97
2018-08-19T12:38:09.869Z,36.30
2018-08-19T12:40:44.357Z,35.68
2018-08-19T12:43:14.426Z,38.78
2018-08-19T12:45:44.646Z,40.49
2018-08-19T12:48:14.857Z,41.17
2018-08-19T12:50:54.252Z,39.07
2018-08-19T12:53:24.414Z,38.44
2018-08-19T12:55:54.542Z,39.63
2018-08-19T12:58:24.607Z,37.02
2018-08-19T13:00:54.598Z,38.27
2018-08-19T13:03:28.248Z,39.33
2018-08-19T13:06:05.957Z,37.64
2018-08-19T13:08:36.106Z,38.69
2018-08-19T13:11:07.651Z,38.15
2018-08-19T13:13:37.625Z,36.97
2018-08-19T13:16:07.874Z,40.02
2018-08-19T13:18:44.263Z,38.84
2018-08-19T13:21:16.013Z,39.05
2018-08-19T13:23:46.317Z,39.38
2018-08-19T13:26:22.029Z,36.71
2018-08-19T13:28:55.244Z,37.10
2018-08-19T13:31:31.225Z,38.36
2018-08-19T13:34:01.506Z,41.29
2018-08-19T13:36:31.889Z,40.79
2018-08-19T13:39:02.021Z,39.00
2018-08-19T13:41:32.059Z,39.46
2018-08-19T13:44:02.005Z,42.03
2018-08-19T13:46:32.071Z,40.60
2018-08-19T13:49:02.214Z,39.62
2018-08-19T13:51:32.197Z,40.09
2018-08-19T13:54:02.290Z,40.42
2018-08-19T13:56:32.286Z,39.34
2018-08-19T13:59:02.562Z,40.91
2018-08-19T14:01:32.643Z,43.19
2018-08-19T14:04:02.497Z,44.04
2018-08-19T14:06:32.590Z,43.18
2018-08-19T14:09:02.590Z,40.65
2018-08-19T14:11:32.873Z,39.73
2018-08-19T14:14:02.925Z,40.51
2018-08-19T14:16:33.662Z,39.91
2018-08-19T14:19:04.337Z,42.42
2018-08-19T14:21:34.600Z,42.75
2018-08-19T14:24:05.210Z,42.45
2018-08-19T14:26:35.513Z,43.98
2018-08-19T14:29:05.995Z,44.92
2018-08-19T14:31:36.366Z,45.56
2018-08-19T14:34:06.799Z,42.98
2018-08-19T14:36:37.206Z,44.91
2018-08-19T14:48:15.461Z,42.90
2018-08-19T14:50:46.010Z,41.68
2018-08-19T14:53:16.588Z,40.65
2018-08-19T14:55:46.883Z,41.66
2018-08-19T14:58:17.175Z,41.93
2018-08-19T15:00:47.415Z,39.80
2018-08-19T15:03:17.560Z,39.73
2018-08-19T15:06:03.353Z,39.54
2018-08-19T15:08:36.025Z,38.87
2018-08-19T15:11:06.178Z,39.85
2018-08-19T15:13:36.128Z,40.36
2018-08-19T15:16:06.459Z,37.71
2018-08-19T15:18:36.415Z,37.66
2018-08-19T15:21:06.319Z,37.96
2018-08-19T15:23:36.350Z,38.49
2018-08-19T15:26:06.549Z,38.43
2018-08-19T15:28:38.934Z,39.34
2018-08-19T15:31:14.903Z,39.03
2018-08-19T15:33:45.397Z,39.69
2018-08-19T15:36:16.074Z,39.54
2018-08-19T15:38:46.869Z,39.19
2018-08-19T15:41:17.457Z,39.27
2018-08-19T15:43:47.889Z,40.61
2018-08-19T15:46:18.896Z,39.87
2018-08-19T15:48:54.120Z,38.75
2018-08-19T15:51:24.928Z,39.31
2018-08-19T15:53:55.009Z,40.09
2018-08-19T15:56:28.001Z,39.91
2018-08-19T15:58:58.254Z,40.07
2018-08-19T16:01:32.478Z,39.84
2018-08-19T16:04:07.169Z,40.51
2018-08-19T16:06:56.945Z,40.48
2018-08-19T16:09:28.085Z,39.61
2018-08-19T16:11:58.609Z,39.05
2018-08-19T16:14:30.207Z,39.02
2018-08-19T16:17:02.126Z,38.07
2018-08-19T16:19:33.090Z,37.76
2018-08-19T16:22:03.982Z,39.56
2018-08-19T16:24:34.628Z,41.30
2018-08-19T16:27:19.291Z,41.51
2018-08-19T16:29:49.673Z,39.37
2018-08-19T16:32:20.373Z,37.78
2018-08-19T16:34:51.184Z,37.29
2018-08-19T16:37:22.134Z,37.87
2018-08-19T16:39:59.621Z,37.00
2018-08-19T16:42:30.768Z,37.01
2018-08-19T16:45:01.485Z,38.36
2018-08-19T16:47:32.455Z,38.67
2018-08-19T16:50:26.326Z,39.27
2018-08-19T16:52:57.201Z,39.39
2018-08-19T16:55:28.239Z,38.76
2018-08-19T16:58:22.550Z,37.85
2018-08-19T17:00:53.907Z,37.16
2018-08-19T17:03:41.514Z,37.26
2018-08-19T17:06:14.581Z,36.93
2018-08-19T17:08:51.608Z,35.62
2018-08-19T17:11:22.790Z,34.42
2018-08-19T17:13:54.329Z,33.45
2018-08-19T17:16:26.303Z,32.61
2018-08-19T17:19:06.385Z,32.14
2018-08-19T17:21:38.372Z,31.56
2018-08-19T17:24:09.344Z,31.23
2018-08-19T17:26:40.688Z,30.81
2018-08-19T17:29:16.390Z,30.51
2018-08-19T17:31:47.375Z,30.30
2018-08-19T17:34:20.019Z,30.22
2018-08-19T17:36:51.019Z,29.98
2018-08-19T17:39:23.212Z,29.78
2018-08-19T17:41:54.582Z,29.61
2018-08-19T17:44:25.439Z,29.19
2018-08-19T17:46:57.567Z,28.96
2018-08-19T17:49:29.587Z,28.63
2018-08-19T17:52:01.572Z,28.43
2018-08-19T17:54:33.118Z,28.34
2018-08-19T17:57:26.618Z,28.25
2018-08-19T17:59:57.276Z,28.11
2018-08-19T18:02:28.244Z,28.04
2018-08-19T18:04:59.678Z,28.08
2018-08-19T18:07:30.576Z,28.05
2018-08-19T18:10:01.585Z,27.92
2018-08-19T18:12:32.244Z,27.82
2018-08-19T18:15:09.725Z,27.70
2018-08-19T18:17:56.645Z,27.60
2018-08-19T18:20:41.766Z,27.53
2018-08-19T18:23:17.799Z,27.52
2018-08-19T18:25:51.239Z,27.50
2018-08-19T18:28:28.270Z,27.50
2018-08-19T18:31:11.495Z,27.47
2018-08-19T18:34:18.065Z,27.47
2018-08-19T18:36:48.573Z,27.33
2018-08-19T18:39:19.014Z,27.14
2018-08-19T18:41:53.717Z,26.95
2018-08-19T18:44:24.264Z,26.80
2018-08-19T18:46:54.702Z,26.64
2018-08-19T18:49:45.396Z,26.53
2018-08-19T18:52:18.719Z,26.45
2018-08-19T18:54:49.084Z,26.40
2018-08-19T18:57:19.934Z,26.36
2018-08-19T18:59:50.794Z,26.32
2018-08-19T19:02:21.381Z,26.31
2018-08-19T19:04:52.886Z,26.29
2018-08-19T19:07:23.670Z,26.30
2018-08-19T19:09:56.964Z,26.30
2018-08-19T19:12:27.464Z,26.29
2018-08-19T19:14:57.999Z,26.22
2018-08-19T19:17:28.690Z,26.18
2018-08-19T19:20:02.568Z,26.11
2018-08-19T19:22:48.914Z,25.99
2018-08-19T19:25:26.763Z,25.82
2018-08-19T19:27:58.166Z,25.76
2018-08-19T19:30:29.438Z,25.70
2018-08-19T19:33:03.935Z,25.73
2018-08-19T19:35:34.302Z,25.73
2018-08-19T19:38:06.444Z,25.74
2018-08-19T19:40:37.046Z,25.75
2018-08-19T19:43:07.543Z,25.70
2018-08-19T19:45:43.671Z,25.89
2018-08-19T19:48:14.104Z,26.16
2018-08-19T19:50:49.728Z,26.33
2018-08-19T19:53:20.022Z,26.47
2018-08-19T19:55:51.555Z,26.47
2018-08-19T19:58:21.755Z,26.42
2018-08-19T20:00:55.774Z,26.37
2018-08-19T20:03:26.702Z,26.44
2018-08-19T20:05:57.251Z,26.61
2018-08-19T20:08:34.118Z,26.63
2018-08-19T20:11:05.193Z,26.61
2018-08-19T20:13:38.811Z,26.61
2018-08-19T20:16:15.437Z,26.58
2018-08-19T20:18:47.174Z,26.55
2018-08-19T20:21:25.255Z,26.54
2018-08-19T20:23:57.897Z,26.60
2018-08-19T20:26:29.404Z,26.54
2018-08-19T20:29:08.429Z,26.47
2018-08-19T20:31:39.835Z,26.28
2018-08-19T20:34:10.389Z,26.14
2018-08-19T20:36:40.840Z,26.14
2018-08-19T20:39:10.883Z,26.15
2018-08-19T20:41:41.106Z,26.14
2018-08-19T20:44:11.252Z,26.25
2018-08-19T20:46:46.211Z,26.22
2018-08-19T20:49:28.040Z,26.13
2018-08-19T20:51:58.565Z,26.04
2018-08-19T20:54:28.779Z,25.99
2018-08-19T20:56:58.974Z,25.89
2018-08-19T20:59:34.133Z,25.80
2018-08-19T21:02:05.392Z,25.72
2018-08-19T21:04:41.915Z,25.64
2018-08-19T21:07:12.242Z,25.60
2018-08-19T21:09:42.582Z,25.58
2018-08-19T21:12:20.740Z,25.56
2018-08-19T21:14:51.797Z,25.51
2018-08-19T21:17:21.800Z,25.45
2018-08-19T21:19:51.713Z,25.40
2018-08-19T21:22:22.082Z,25.41
2018-08-19T21:24:52.640Z,25.34
2018-08-19T21:27:23.639Z,25.35
2018-08-19T21:29:58.415Z,25.33
2018-08-19T21:32:28.766Z,25.18
2018-08-19T21:34:59.256Z,25.07
2018-08-19T21:37:34.747Z,24.96
2018-08-19T21:40:06.204Z,24.83
2018-08-19T21:42:54.142Z,24.69
2018-08-19T21:45:24.602Z,24.57
2018-08-19T21:47:54.791Z,24.51
2018-08-19T21:50:25.441Z,24.44
2018-08-19T21:53:06.930Z,24.37
2018-08-19T21:55:43.659Z,24.30
2018-08-19T21:58:14.546Z,24.28
2018-08-19T22:00:50.314Z,24.19
2018-08-19T22:03:25.861Z,24.11
2018-08-19T22:05:58.042Z,24.00
2018-08-19T22:08:28.927Z,23.96
2018-08-19T22:11:01.618Z,23.93
2018-08-19T22:13:34.285Z,23.91
2018-08-19T22:16:04.926Z,23.88
2018-08-19T22:18:35.952Z,23.86
2018-08-19T22:21:23.677Z,23.86
2018-08-19T22:23:58.085Z,23.82
2018-08-19T22:26:28.626Z,23.74
2018-08-19T22:29:14.951Z,23.67
2018-08-19T22:31:47.710Z,23.63
2018-08-19T22:34:18.301Z,23.60
2018-08-19T22:36:49.242Z,23.54
2018-08-19T22:39:22.047Z,23.47
2018-08-19T22:41:53.068Z,23.45
2018-08-19T22:44:23.791Z,23.45
2018-08-19T22:46:54.787Z,23.40
2018-08-19T22:49:28.555Z,23.35
2018-08-19T22:52:28.051Z,23.31
2018-08-19T22:54:59.497Z,23.21
2018-08-19T22:57:35.975Z,23.16
2018-08-19T23:00:08.506Z,23.11
2018-08-19T23:02:39.398Z,23.04
2018-08-19T23:05:10.048Z,22.99
2018-08-19T23:07:40.677Z,22.93
2018-08-19T23:10:11.162Z,22.85
2018-08-19T23:12:43.132Z,22.79
2018-08-19T23:15:32.977Z,22.73
2018-08-19T23:18:03.627Z,22.67
2018-08-19T23:20:36.395Z,22.65
2018-08-19T23:23:11.119Z,22.59
2018-08-19T23:25:41.577Z,22.53
2018-08-19T23:28:12.046Z,22.50
2018-08-19T23:30:42.732Z,22.46
2018-08-19T23:33:13.138Z,22.41
2018-08-19T23:35:43.505Z,22.32
2018-08-19T23:38:13.973Z,22.22
2018-08-19T23:40:48.303Z,22.17
2018-08-19T23:43:19.324Z,22.10
2018-08-19T23:45:49.679Z,22.02
2018-08-19T23:48:20.027Z,21.93
2018-08-19T23:50:50.859Z,21.87
2018-08-19T23:53:21.367Z,21.77
2018-08-19T23:55:51.699Z,21.71
2018-08-19T23:58:34.434Z,21.72
